• Join FlightAware (Why Join?)
  • Login
  • US Flag 
07:27AM EDT


 

Airport Tracker/Info


-or-


 

Live Flight TrackerFlight Track Log ✈ PDT4155 ✈ 03-Oct-2013 ✈ KBGM - KPHL

Flight Track Log - Related Links

Times and Time Zones

All times are in EDT time to prevent confusion due to time zone crossing. See the PDT4155 flight status page for this flight to view local times or setup timezone preferences in your user account.

Time Position Orientation Groundspeed Altitude Reporting Facility
EDT Latitude Longitude Course Direction KTS MPH feet Rate Location/Type
07:04AM 42.0016 -75.9120 180° South  Level Estimated
07:05AM 41.9485 -75.9165 184° South  Level FlightAware Approximate
07:06AM 41.8968 -75.8991 154° Southeast  Level Estimated
07:07AM 41.8452 -75.8818 160° South  Level Estimated
07:08AM 41.7921 -75.8780 177° South  Level FlightAware Approximate
07:09AM 41.7405 -75.8604 159° South  Level Estimated
07:10AM 41.6882 -75.8472 169° South  Level FlightAware Approximate
07:11AM 41.6367 -75.8295 153° Southeast  Level Estimated
07:12AM 41.5851 -75.8119 161° South  Level Estimated
07:13AM 41.5342 -75.7912 163° South  Level FlightAware Approximate
07:14AM 41.4832 -75.7706 163° South  Level FlightAware Approximate
07:15AM 41.4323 -75.7500 163° South  Level FlightAware Approximate
07:16AM 41.3807 -75.7328 162° South  Level Estimated
07:17AM 41.3301 -75.7106 162° South  Level FlightAware Approximate
07:18AM 41.2796 -75.6885 162° South  Level FlightAware Approximate
07:19AM 41.2290 -75.6664 162° South  Level FlightAware Approximate
07:20AM 41.1785 -75.6443 162° South  Level FlightAware Approximate
07:21AM 41.1267 -75.6280 159° South  Level Estimated
07:22AM 41.0749 -75.6117 163° South  Level Estimated
07:23AM 41.0246 -75.5889 161° South  Level FlightAware Approximate
07:24AM 40.9742 -75.5661 161° South  Level FlightAware Approximate
07:25AM 40.9239 -75.5433 161° South  Level FlightAware Approximate
07:26AM 40.8735 -75.5206 161° South  Level FlightAware Approximate
07:26AM 40.6667 -75.5667 179° South 258 297 7,000  Level Philadelphia TRACON
07:27AM 40.8215 -75.5058 190° South  Level Estimated
07:27AM 40.6167 -75.5667 180° South 263 303 6,400  Level Philadelphia TRACON
07:28AM 40.7682 -75.5048 179° South  Level FlightAware Approximate
07:28AM 40.5500 -75.5667 180° South 263 303 5,400  Level Philadelphia TRACON
07:29AM 40.7419 -75.5044 179° South  Level FlightAware Approximate
07:29AM 40.4833 -75.5500 169° South 260 299 5,000  Level Philadelphia TRACON
07:30AM 40.7156 -75.5039 179° South  Level FlightAware Approximate
07:30AM 40.4333 -75.4833 135° Southeast 251 289 5,000  Level Philadelphia TRACON
07:31AM 40.6893 -75.5034 179° South  Level FlightAware Approximate
07:31AM 40.3833 -75.4167 135° Southeast 249 287 5,000  Level Philadelphia TRACON
07:32AM 40.6629 -75.5029 179° South  Level FlightAware Approximate
07:32AM 40.3333 -75.3667 143° Southeast 246 283 5,000  Level Philadelphia TRACON
07:33AM 40.2667 -75.3333 159° South 244 281 5,000 -300 Level Philadelphia TRACON
07:34AM 40.2000 -75.2833 150° Southeast 255 293 4,400 -540 Descending Philadelphia TRACON
07:35AM 40.1333 -75.2500 159° South 256 295 4,000 -240 Descending Philadelphia TRACON
07:36AM 40.0667 -75.2167 159° South 243 280 4,000  Level Philadelphia TRACON
07:37AM 40.0000 -75.2000 169° South 240 276 4,000  Level Philadelphia TRACON
07:38AM 39.9500 -75.1667 153° Southeast 226 260 4,000 -120 Level Philadelphia TRACON
07:39AM 39.8833 -75.1333 159° South 221 254 3,800 -600 Descending Philadelphia TRACON
07:40AM 39.8333 -75.1167 166° South 206 237 2,800 -1,080 Descending Philadelphia TRACON
07:41AM 39.8167 -75.1667 247° West 174 200 1,700 -960 Descending Philadelphia TRACON
07:42AM 39.8333 -75.2000 303° West 120 138 900 -720 Descending Philadelphia TRACON
07:43AM 39.8500 -75.2167 322° Northwest 91 105 300 -600 Descending Philadelphia TRACON